ADDS TAF Board (Experimental) INFO Settings
IDs: Format: Expanded Condensed

KMEM - Memphis Intl, TN, US

Issued at 2055 UTC 28 Apr 2016
Updated at: 2141 UTC 28 Apr 2016
Time2054Z 28/22Z 28/23Z 29/00Z 29/01Z 29/02Z 29/03Z 29/04Z 29/05Z 29/06Z 29/07Z 29/08Z 29/09Z 29/10Z
Type OBS PRVL PRVL PRVL PRVL PRVL PRVL PRVL PRVL PRVL PRVL PRVL PRVL PRVL
VIS 10 >6 >6 >6 >6 >6 >6 >6 >6 >6 >6 >6 >6 >6
CIG -- -- -- -- -- -- -- -- -- -- -- -- -- --
Cover FEW SKC SKC SKC SKC SKC SKC SKC SKC SKC SKC SKC SKC SKC
FltCat VFR VFR VFR VFR VFR VFR VFR VFR VFR VFR VFR VFR VFR VFR
WX -- -- -- -- -- -- -- -- -- -- -- -- -- --
WDir 340 300 300 300 70 70 70 70 70 70 70 70 70 70
WSpd 3 7 7 7 5 5 5 5 5 5 5 5 5 5
WGst -- -- -- -- -- -- -- -- -- -- -- -- -- --
R09/27
XWnd 3 3 3 3 2 2 2 2 2 2 2 2 2 2
HWnd -1 -6 -6 -6 5 5 5 5 5 5 5 5 5 5
R18/36
XWnd -1 -6 -6 -6 5 5 5 5 5 5 5 5 5 5
HWnd -3 -4 -4 -4 -2 -2 -2 -2 -2 -2 -2 -2 -2 -2

NOTE: TEMPO conditions in [brackets]. Keep in mind TEMPO conditions might be better (lower impact) than prevailing conditions.

Raw TAF
KMEM 282055Z 2821/2918 30007KT P6SM SKC
  FM290100 07005KT P6SM SKC
  FM291200 10006KT P6SM FEW030 BKN150
  FM291700 12007KT P6SM VCTS SCT050CB BKN120


Raw METAR
KMEM 282054Z 34003KT 10SM FEW250 29/12 A2993 RMK AO2 SLP130 T02890117 58004 $
KMEM 281954Z 27006KT 10SM FEW250 28/13 A2994 RMK AO2 SLP134 T02830128
KMEM 281854Z 29008KT 10SM FEW250 28/13 A2994 RMK AO2 SLP134 T02780128

METAR Board
Radar Display
Forecast Discussion

TAF Board Legend

Potential Impact
Threat None Slight Moderate High
Visibility (sm) ≥5.1 5.1>X≥3 3>X≥1 <1
Ceiling (100 ft) ≥30.1 30.1>X≥10 10>X≥5 <5
Wind Speed (kt) <10 10≤X<20 20≤X<30 ≥30
Wind Gust (kt) <15 15≤X<25 25≤X<35 ≥35
Weather No Wx Reported VCTS,-TS,-FZRA,SN TS,FZRA +TS,+FZRA,+SN